createdAt,value
2022-08-03T00:01:19.594Z,17.68
2022-08-03T00:04:06.984Z,17.62
2022-08-03T00:06:53.550Z,17.46
2022-08-03T00:09:40.053Z,17.38
2022-08-03T00:12:26.502Z,17.52
2022-08-03T00:15:16.355Z,17.35
2022-08-03T00:18:03.483Z,17.22
2022-08-03T00:20:49.767Z,17.21
2022-08-03T00:23:52.373Z,17.35
2022-08-03T00:26:39.335Z,17.21
2022-08-03T00:29:25.916Z,17.25
2022-08-03T00:32:12.174Z,17.01
2022-08-03T00:34:59.263Z,17.24
2022-08-03T00:37:45.561Z,17.15
2022-08-03T00:40:32.151Z,17.23
2022-08-03T00:43:18.622Z,16.99
2022-08-03T00:46:04.955Z,17.10
2022-08-03T00:48:52.172Z,17.08
2022-08-03T00:51:38.659Z,17.07
2022-08-03T00:54:25.687Z,16.91
2022-08-03T00:57:12.177Z,16.84
2022-08-03T01:00:00.162Z,16.86
2022-08-03T01:02:47.515Z,16.59
2022-08-03T01:05:44.299Z,16.76
2022-08-03T01:08:50.867Z,16.79
2022-08-03T01:12:00.659Z,16.85
2022-08-03T01:15:12.312Z,16.74
2022-08-03T01:18:10.446Z,16.56
2022-08-03T01:21:00.828Z,16.33
2022-08-03T01:24:18.286Z,16.61
2022-08-03T01:27:11.630Z,16.37
2022-08-03T01:30:09.064Z,16.59
2022-08-03T01:33:09.352Z,16.46
2022-08-03T01:36:10.214Z,16.32
2022-08-03T01:39:00.490Z,16.45
2022-08-03T01:41:53.793Z,16.41
2022-08-03T01:44:44.993Z,16.40
2022-08-03T01:47:32.728Z,16.28
2022-08-03T01:50:23.014Z,16.22
2022-08-03T01:53:11.417Z,16.03
2022-08-03T01:55:59.651Z,16.22
2022-08-03T01:58:48.276Z,16.18
2022-08-03T02:02:28.326Z,16.13
2022-08-03T02:04:45.270Z,16.04
2022-08-03T02:07:34.357Z,16.08
2022-08-03T02:10:35.538Z,15.91
2022-08-03T02:13:24.558Z,15.85
2022-08-03T02:16:12.799Z,15.97
2022-08-03T02:19:01.446Z,16.03
2022-08-03T02:21:56.721Z,15.70
2022-08-03T02:24:50.923Z,16.02
2022-08-03T02:27:43.746Z,15.85
2022-08-03T02:30:39.094Z,15.79
2022-08-03T02:33:30.246Z,15.79
2022-08-03T02:36:21.927Z,15.88
2022-08-03T02:39:11.680Z,15.89
2022-08-03T02:42:03.444Z,15.74
2022-08-03T02:44:51.306Z,15.69
2022-08-03T02:47:53.198Z,15.75
2022-08-03T02:50:44.435Z,15.75
2022-08-03T02:53:31.757Z,15.75
2022-08-03T02:56:19.163Z,15.55
2022-08-03T02:59:06.970Z,15.68
2022-08-03T03:01:55.374Z,15.60
2022-08-03T03:05:52.562Z,15.59
2022-08-03T03:07:51.998Z,15.39
2022-08-03T03:10:40.868Z,15.40
2022-08-03T03:13:30.356Z,15.39
2022-08-03T03:16:17.877Z,15.41
2022-08-03T03:19:04.901Z,15.49
2022-08-03T03:21:52.279Z,15.37
2022-08-03T03:24:41.528Z,15.45
2022-08-03T03:27:28.736Z,15.46
2022-08-03T03:30:16.447Z,15.32
2022-08-03T03:33:02.947Z,15.33
2022-08-03T03:35:51.553Z,15.31
2022-08-03T03:38:38.025Z,15.41
2022-08-03T03:41:24.550Z,15.26
2022-08-03T03:44:11.205Z,14.98
2022-08-03T03:46:58.148Z,15.10
2022-08-03T03:49:45.474Z,15.20
2022-08-03T03:52:32.809Z,15.14
2022-08-03T03:55:19.278Z,15.27
2022-08-03T03:58:06.297Z,15.10
2022-08-03T04:00:53.866Z,15.08
2022-08-03T04:03:40.339Z,15.16
2022-08-03T04:06:45.255Z,15.02
2022-08-03T04:09:53.616Z,14.97
2022-08-03T04:12:50.433Z,15.08
2022-08-03T04:15:39.762Z,15.06
2022-08-03T04:18:29.736Z,15.13
2022-08-03T04:21:19.227Z,15.17
2022-08-03T04:24:09.007Z,15.14
2022-08-03T04:26:57.702Z,15.32
2022-08-03T04:29:49.183Z,15.35
2022-08-03T04:32:40.882Z,15.24
2022-08-03T04:36:01.926Z,15.14
2022-08-03T04:38:51.138Z,15.49
2022-08-03T04:42:07.212Z,15.43
2022-08-03T04:44:47.725Z,15.45
2022-08-03T04:47:34.739Z,15.30
2022-08-03T04:50:21.982Z,15.60
2022-08-03T04:53:23.570Z,15.78
2022-08-03T04:56:10.081Z,15.91
2022-08-03T04:58:56.546Z,16.02
2022-08-03T05:01:43.444Z,16.29
2022-08-03T05:04:30.217Z,16.63
2022-08-03T05:07:24.153Z,17.29
2022-08-03T05:10:14.886Z,18.63
2022-08-03T05:13:02.808Z,19.75
2022-08-03T05:15:49.397Z,21.03
2022-08-03T05:18:36.043Z,22.25
2022-08-03T05:21:22.714Z,23.09
2022-08-03T05:24:08.926Z,23.96
2022-08-03T05:26:55.190Z,24.51
2022-08-03T05:29:41.852Z,25.01
2022-08-03T05:32:28.467Z,25.43
2022-08-03T05:36:02.021Z,25.72
2022-08-03T05:38:28.298Z,25.64
2022-08-03T05:41:22.974Z,25.57
2022-08-03T05:44:10.639Z,24.96
2022-08-03T05:46:57.019Z,24.78
2022-08-03T05:49:43.655Z,24.11
2022-08-03T05:52:30.682Z,23.47
2022-08-03T05:55:17.701Z,22.85
2022-08-03T05:58:04.331Z,22.37
2022-08-03T06:00:51.353Z,21.79
2022-08-03T06:03:37.771Z,21.55
2022-08-03T06:06:25.369Z,21.20
2022-08-03T06:09:13.765Z,20.81
2022-08-03T06:12:00.229Z,20.77
2022-08-03T06:14:46.786Z,20.72
2022-08-03T06:17:37.728Z,20.71
2022-08-03T06:20:27.387Z,20.64
2022-08-03T06:23:17.711Z,20.73
2022-08-03T06:26:04.630Z,20.60
2022-08-03T06:28:51.367Z,20.83
2022-08-03T06:31:39.678Z,21.07
2022-08-03T06:34:33.596Z,21.18
2022-08-03T06:37:21.570Z,21.23
2022-08-03T06:40:08.408Z,21.51
2022-08-03T06:42:55.451Z,21.43
2022-08-03T06:45:42.453Z,21.88
2022-08-03T06:48:28.942Z,21.99
2022-08-03T06:51:15.419Z,22.11
2022-08-03T06:54:01.720Z,22.30
2022-08-03T06:56:48.592Z,22.53
2022-08-03T07:00:09.141Z,22.99
2022-08-03T07:02:41.484Z,23.08
2022-08-03T07:05:28.367Z,23.48
2022-08-03T07:08:15.618Z,23.81
2022-08-03T07:11:01.921Z,23.86
2022-08-03T07:13:48.446Z,23.90
2022-08-03T07:16:35.027Z,24.19
2022-08-03T07:19:21.652Z,24.43
2022-08-03T07:22:08.750Z,24.60
2022-08-03T07:24:56.745Z,24.85
2022-08-03T07:27:46.023Z,24.82
2022-08-03T07:30:36.526Z,25.19
2022-08-03T07:33:22.763Z,25.45
2022-08-03T07:36:09.089Z,25.48
2022-08-03T07:38:55.401Z,25.44
2022-08-03T07:41:41.546Z,25.61
2022-08-03T07:44:28.245Z,25.77
2022-08-03T07:47:25.815Z,25.88
2022-08-03T07:50:22.984Z,25.82
2022-08-03T07:53:09.494Z,26.22
2022-08-03T07:55:56.921Z,26.32
2022-08-03T07:58:43.439Z,26.27
2022-08-03T08:01:29.841Z,26.33
2022-08-03T08:04:16.796Z,26.55
2022-08-03T08:07:03.328Z,26.84
2022-08-03T08:09:49.585Z,26.69
2022-08-03T08:12:36.406Z,26.90
2022-08-03T08:15:23.358Z,26.88
2022-08-03T08:18:09.805Z,27.13
2022-08-03T08:20:56.213Z,27.19
2022-08-03T08:23:46.248Z,27.34
2022-08-03T08:26:44.180Z,27.39
2022-08-03T08:29:30.654Z,27.64
2022-08-03T08:32:17.025Z,27.76
2022-08-03T08:35:08.006Z,27.73
2022-08-03T08:37:54.622Z,27.83
2022-08-03T08:40:40.946Z,27.85
2022-08-03T08:43:28.164Z,27.84
2022-08-03T08:46:22.837Z,28.05
2022-08-03T08:49:12.112Z,28.31
2022-08-03T08:52:01.014Z,28.41
2022-08-03T08:54:47.914Z,28.45
2022-08-03T08:57:43.564Z,28.60
2022-08-03T09:00:31.120Z,28.38
2022-08-03T09:03:26.191Z,28.57
2022-08-03T09:06:16.885Z,28.57
2022-08-03T09:09:03.542Z,28.67
2022-08-03T09:11:52.432Z,28.87
2022-08-03T09:15:14.736Z,28.92
2022-08-03T09:18:03.156Z,29.20
2022-08-03T09:20:49.557Z,29.18
2022-08-03T09:24:02.219Z,29.17
2022-08-03T09:26:52.238Z,29.32
2022-08-03T09:29:40.343Z,29.32
2022-08-03T09:32:26.957Z,29.43
2022-08-03T09:35:14.760Z,29.58
2022-08-03T09:38:26.098Z,29.64
2022-08-03T09:41:18.685Z,29.88
2022-08-03T09:44:05.141Z,29.94
2022-08-03T09:46:53.941Z,30.05
2022-08-03T09:49:41.609Z,30.05
2022-08-03T09:52:50.019Z,30.28
2022-08-03T09:56:32.746Z,30.15
2022-08-03T09:59:00.299Z,30.29
2022-08-03T10:01:46.601Z,30.35
2022-08-03T10:04:33.779Z,30.40
2022-08-03T10:07:22.664Z,30.27
2022-08-03T10:10:29.060Z,30.33
2022-08-03T10:13:19.102Z,30.46
2022-08-03T10:16:22.021Z,30.20
2022-08-03T10:19:11.509Z,30.39
2022-08-03T10:22:04.120Z,30.55
2022-08-03T10:24:59.820Z,30.61
2022-08-03T10:27:50.827Z,30.50
2022-08-03T10:30:41.054Z,30.53
2022-08-03T10:33:51.834Z,30.74
2022-08-03T10:36:39.980Z,30.53
2022-08-03T10:39:29.679Z,30.61
2022-08-03T10:42:16.176Z,30.91
2022-08-03T10:45:09.562Z,30.95
2022-08-03T10:47:57.591Z,30.75
2022-08-03T10:50:44.304Z,30.89
2022-08-03T10:53:40.252Z,31.06
2022-08-03T10:56:51.349Z,31.15
2022-08-03T10:59:46.652Z,31.20
2022-08-03T11:03:04.179Z,31.40
2022-08-03T11:05:52.175Z,31.37
2022-08-03T11:08:38.612Z,31.50
2022-08-03T11:11:26.420Z,31.37
2022-08-03T11:14:21.381Z,31.08
2022-08-03T11:17:14.189Z,31.25
2022-08-03T11:20:01.226Z,31.41
2022-08-03T11:22:53.971Z,31.65
2022-08-03T11:26:08.419Z,31.83
2022-08-03T11:29:27.970Z,31.94
2022-08-03T11:32:40.159Z,31.98
2022-08-03T11:35:35.914Z,31.82
2022-08-03T11:38:24.587Z,32.17
2022-08-03T11:41:44.885Z,32.19
2022-08-03T11:44:50.779Z,32.16
2022-08-03T11:47:50.658Z,32.23
2022-08-03T11:50:37.981Z,32.27
2022-08-03T11:53:24.472Z,32.15
2022-08-03T11:56:12.998Z,32.09
2022-08-03T11:59:18.568Z,32.27
2022-08-03T12:02:16.867Z,32.37
2022-08-03T12:05:03.635Z,32.32
2022-08-03T12:08:04.284Z,32.61
2022-08-03T12:10:54.306Z,32.91
2022-08-03T12:14:35.821Z,33.12
2022-08-03T12:16:54.415Z,33.09
2022-08-03T12:19:44.672Z,32.79
2022-08-03T12:22:37.221Z,33.16
2022-08-03T12:25:38.623Z,33.25
2022-08-03T12:28:36.972Z,33.43
2022-08-03T12:31:25.057Z,33.40
2022-08-03T12:34:12.062Z,33.53
2022-08-03T12:36:59.232Z,33.48
2022-08-03T12:40:02.056Z,33.26
2022-08-03T12:42:50.495Z,33.23
2022-08-03T12:45:36.962Z,33.22
2022-08-03T12:48:23.560Z,33.14
2022-08-03T12:51:14.218Z,32.89
2022-08-03T12:54:02.051Z,32.81
2022-08-03T12:57:08.335Z,32.85
2022-08-03T12:59:55.906Z,32.80
2022-08-03T13:02:46.352Z,33.08
2022-08-03T13:05:44.559Z,32.99
2022-08-03T13:08:30.942Z,32.85
2022-08-03T13:11:53.628Z,33.09
2022-08-03T13:14:33.370Z,33.20
2022-08-03T13:17:20.132Z,33.41
2022-08-03T13:20:07.308Z,33.37
2022-08-03T13:22:56.021Z,33.56
2022-08-03T13:25:55.262Z,33.53
2022-08-03T13:28:42.622Z,33.65
2022-08-03T13:31:29.290Z,33.64
2022-08-03T13:34:18.703Z,33.95
2022-08-03T13:37:10.217Z,34.07
2022-08-03T13:39:59.027Z,34.11
2022-08-03T13:42:47.189Z,33.88
2022-08-03T13:45:33.730Z,33.85
2022-08-03T13:48:35.785Z,33.78
2022-08-03T13:51:23.478Z,34.02
2022-08-03T13:54:09.878Z,33.84
2022-08-03T13:58:01.146Z,33.67
2022-08-03T14:00:04.562Z,33.94
2022-08-03T14:02:50.790Z,33.82
2022-08-03T14:05:38.597Z,33.63
2022-08-03T14:08:25.134Z,33.62
2022-08-03T14:11:12.068Z,33.56
2022-08-03T14:13:59.120Z,33.32
2022-08-03T14:16:45.652Z,33.35
2022-08-03T14:19:52.533Z,33.42
2022-08-03T14:22:40.280Z,33.24
2022-08-03T14:25:26.860Z,33.40
2022-08-03T14:28:13.333Z,33.56
2022-08-03T14:30:59.911Z,33.67
2022-08-03T14:33:46.474Z,33.47
2022-08-03T14:36:33.024Z,33.38
2022-08-03T14:39:19.201Z,33.42
2022-08-03T14:42:06.091Z,33.69
2022-08-03T14:44:52.255Z,33.64
2022-08-03T14:50:10.361Z,33.81
2022-08-03T14:50:50.730Z,33.43
2022-08-03T14:53:37.792Z,33.54
2022-08-03T14:56:24.114Z,33.61
2022-08-03T14:59:10.515Z,33.53
2022-08-03T15:02:06.230Z,33.46
2022-08-03T15:04:54.202Z,33.30
2022-08-03T15:07:40.526Z,33.54
2022-08-03T15:10:27.190Z,33.32
2022-08-03T15:13:31.046Z,33.18
2022-08-03T15:16:17.391Z,33.21
2022-08-03T15:19:04.898Z,33.15
2022-08-03T15:22:10.237Z,33.08
2022-08-03T15:24:59.536Z,32.95
2022-08-03T15:28:04.094Z,33.04
2022-08-03T15:30:54.665Z,33.02
2022-08-03T15:33:41.100Z,32.94
2022-08-03T15:36:27.743Z,33.12
2022-08-03T15:39:14.316Z,32.88
2022-08-03T15:42:00.860Z,33.02
2022-08-03T15:44:47.179Z,32.93
2022-08-03T15:47:33.447Z,33.12
2022-08-03T15:50:19.885Z,32.90
2022-08-03T15:53:06.203Z,32.77
2022-08-03T15:55:52.448Z,32.74
2022-08-03T15:59:03.435Z,32.79
2022-08-03T16:01:48.461Z,32.55
2022-08-03T16:04:34.999Z,32.56
2022-08-03T16:07:41.373Z,32.44
2022-08-03T16:10:48.127Z,32.62
2022-08-03T16:14:13.119Z,32.42
2022-08-03T16:16:41.558Z,32.49
2022-08-03T16:19:32.824Z,32.42
2022-08-03T16:22:20.179Z,32.79
2022-08-03T16:25:13.769Z,32.50
2022-08-03T16:28:08.047Z,32.49
2022-08-03T16:30:59.867Z,32.38
2022-08-03T16:33:46.145Z,32.37
2022-08-03T16:36:34.913Z,32.42
2022-08-03T16:39:21.461Z,32.25
2022-08-03T16:42:08.004Z,32.25
2022-08-03T16:44:54.616Z,31.89
2022-08-03T16:47:40.857Z,31.82
2022-08-03T16:50:27.391Z,32.08
2022-08-03T16:53:16.788Z,32.13
2022-08-03T16:56:09.530Z,32.39
2022-08-03T16:58:56.646Z,32.33
2022-08-03T17:01:46.203Z,32.37
2022-08-03T17:04:33.995Z,32.10
2022-08-03T17:07:21.526Z,32.26
2022-08-03T17:10:09.270Z,32.26
2022-08-03T17:12:55.582Z,32.01
2022-08-03T17:15:57.939Z,32.05
2022-08-03T17:19:02.091Z,32.12
2022-08-03T17:22:09.092Z,31.86
2022-08-03T17:24:58.262Z,31.61
2022-08-03T17:28:48.490Z,31.61
2022-08-03T17:31:23.188Z,31.58
2022-08-03T17:34:19.405Z,31.46
2022-08-03T17:37:06.417Z,31.33
2022-08-03T17:40:11.619Z,31.52
2022-08-03T17:44:13.510Z,31.56
2022-08-03T17:46:12.171Z,31.38
2022-08-03T17:48:58.608Z,31.42
2022-08-03T17:51:57.554Z,31.30
2022-08-03T17:55:57.277Z,31.44
2022-08-03T17:58:25.657Z,31.37
2022-08-03T18:02:06.150Z,31.44
2022-08-03T18:04:45.214Z,31.24
2022-08-03T18:07:47.065Z,31.02
2022-08-03T18:10:36.365Z,30.82
2022-08-03T18:14:01.103Z,30.48
2022-08-03T18:17:06.132Z,30.20
2022-08-03T18:20:02.028Z,30.03
2022-08-03T18:22:55.571Z,30.00
2022-08-03T18:25:49.551Z,29.90
2022-08-03T18:28:40.874Z,29.92
2022-08-03T18:31:59.486Z,29.75
2022-08-03T18:34:35.168Z,29.57
2022-08-03T18:37:25.574Z,29.45
2022-08-03T18:40:13.166Z,29.36
2022-08-03T18:43:08.025Z,29.37
2022-08-03T18:45:58.344Z,29.22
2022-08-03T18:48:59.430Z,29.13
2022-08-03T18:52:03.621Z,29.01
2022-08-03T18:55:14.053Z,28.87
2022-08-03T18:58:19.717Z,28.79
2022-08-03T19:01:57.948Z,28.57
2022-08-03T19:04:29.335Z,28.32
2022-08-03T19:07:26.059Z,27.95
2022-08-03T19:10:15.668Z,27.87
2022-08-03T19:13:30.760Z,27.75
2022-08-03T19:16:35.846Z,27.47
2022-08-03T19:19:27.195Z,27.04
2022-08-03T19:22:32.929Z,27.13
2022-08-03T19:25:19.629Z,27.15
2022-08-03T19:28:07.134Z,27.01
2022-08-03T19:30:56.558Z,26.78
2022-08-03T19:33:57.578Z,26.64
2022-08-03T19:36:44.994Z,26.32
2022-08-03T19:39:33.714Z,26.20
2022-08-03T19:42:27.901Z,26.13
2022-08-03T19:45:21.272Z,25.84
2022-08-03T19:48:11.686Z,25.71
2022-08-03T19:50:59.092Z,25.66
2022-08-03T19:53:49.237Z,25.62
2022-08-03T19:56:41.944Z,25.48
2022-08-03T19:59:29.565Z,25.28
2022-08-03T20:02:17.487Z,24.98
2022-08-03T20:08:21.082Z,25.05
2022-08-03T20:11:09.003Z,24.76
2022-08-03T20:13:58.144Z,24.73
2022-08-03T20:16:45.491Z,24.66
2022-08-03T20:19:35.098Z,24.60
2022-08-03T20:22:27.859Z,24.50
2022-08-03T20:25:20.816Z,24.38
2022-08-03T20:28:14.120Z,24.13
2022-08-03T20:31:02.440Z,24.35
2022-08-03T20:33:49.362Z,24.24
2022-08-03T20:36:36.623Z,24.05
2022-08-03T20:39:24.813Z,24.04
2022-08-03T20:42:14.087Z,23.86
2022-08-03T20:45:13.827Z,23.85
2022-08-03T20:48:15.999Z,23.79
2022-08-03T20:51:19.349Z,23.50
2022-08-03T20:54:23.052Z,23.59
2022-08-03T20:57:14.449Z,23.26
2022-08-03T21:00:07.704Z,23.31
2022-08-03T21:02:54.571Z,23.18
2022-08-03T21:05:51.135Z,23.11
2022-08-03T21:08:46.924Z,23.16
2022-08-03T21:11:50.578Z,23.15
2022-08-03T21:13:08.515Z,25.14
2022-08-03T21:14:52.511Z,22.89
2022-08-03T21:17:46.911Z,22.95
2022-08-03T21:20:34.749Z,22.87
2022-08-03T21:23:40.240Z,22.57
2022-08-03T21:26:32.983Z,22.57
2022-08-03T21:29:20.154Z,22.65
2022-08-03T21:32:07.532Z,22.48
2022-08-03T21:34:55.030Z,22.46
2022-08-03T21:37:42.720Z,22.33
2022-08-03T21:40:29.141Z,22.35
2022-08-03T21:43:15.846Z,22.22
2022-08-03T21:46:05.390Z,22.26
2022-08-03T21:48:56.302Z,22.16
2022-08-03T21:51:42.887Z,22.00
2022-08-03T21:54:35.016Z,22.03
2022-08-03T21:57:25.113Z,21.94
2022-08-03T22:00:17.785Z,21.55
2022-08-03T22:03:17.397Z,21.88
2022-08-03T22:06:05.109Z,21.51
2022-08-03T22:08:52.827Z,21.81
2022-08-03T22:11:39.274Z,21.74
2022-08-03T22:14:25.759Z,21.31
2022-08-03T22:17:12.895Z,21.49
2022-08-03T22:20:19.456Z,21.46
2022-08-03T22:23:07.178Z,21.43
2022-08-03T22:25:56.890Z,21.42
2022-08-03T22:28:43.801Z,21.31
2022-08-03T22:31:57.434Z,21.28
2022-08-03T22:34:42.436Z,21.12
2022-08-03T22:37:31.588Z,21.15
2022-08-03T22:40:18.079Z,20.87
2022-08-03T22:43:06.044Z,20.90
2022-08-03T22:46:10.540Z,21.02
2022-08-03T22:48:59.698Z,20.72
2022-08-03T22:51:47.172Z,20.73
2022-08-03T22:54:35.348Z,20.64
2022-08-03T22:57:22.150Z,20.74
2022-08-03T23:00:11.579Z,20.84
2022-08-03T23:03:00.219Z,20.39
2022-08-03T23:06:02.367Z,20.58
2022-08-03T23:08:50.386Z,20.47
2022-08-03T23:11:45.768Z,20.57
2022-08-03T23:14:38.451Z,20.34
2022-08-03T23:17:29.857Z,20.29
2022-08-03T23:20:16.914Z,20.43
2022-08-03T23:23:05.064Z,20.12
2022-08-03T23:25:51.954Z,20.31
2022-08-03T23:28:39.269Z,20.11
2022-08-03T23:31:31.470Z,20.03
2022-08-03T23:34:36.651Z,20.11
2022-08-03T23:37:24.908Z,19.91
2022-08-03T23:40:13.709Z,20.05
2022-08-03T23:43:01.891Z,19.83
2022-08-03T23:45:49.474Z,19.88
2022-08-03T23:48:36.002Z,19.94
2022-08-03T23:51:31.454Z,19.96
2022-08-03T23:54:23.713Z,19.92
2022-08-03T23:57:20.730Z,19.61
